sensor_id;sensor_type;location;lat;lon;timestamp;temperature;humidity
49777;DHT22;35673;51.482;7.436;2022-10-18T00:02:08;16.70;99.90
49777;DHT22;35673;51.482;7.436;2022-10-18T00:04:34;16.70;99.90
49777;DHT22;35673;51.482;7.436;2022-10-18T00:06:59;16.70;99.90
49777;DHT22;35673;51.482;7.436;2022-10-18T00:09:25;16.70;99.90
49777;DHT22;35673;51.482;7.436;2022-10-18T00:11:52;16.70;99.90
49777;DHT22;35673;51.482;7.436;2022-10-18T00:14:18;16.70;99.90
49777;DHT22;35673;51.482;7.436;2022-10-18T00:16:44;16.70;99.90
49777;DHT22;35673;51.482;7.436;2022-10-18T00:19:09;16.70;99.90
49777;DHT22;35673;51.482;7.436;2022-10-18T00:21:35;16.60;99.90
49777;DHT22;35673;51.482;7.436;2022-10-18T00:24:01;16.60;99.90
49777;DHT22;35673;51.482;7.436;2022-10-18T00:26:28;16.60;99.90
49777;DHT22;35673;51.482;7.436;2022-10-18T00:28:57;16.60;99.90
49777;DHT22;35673;51.482;7.436;2022-10-18T00:33:52;16.60;99.90
49777;DHT22;35673;51.482;7.436;2022-10-18T00:36:18;16.60;99.90
49777;DHT22;35673;51.482;7.436;2022-10-18T00:38:44;16.60;99.90
49777;DHT22;35673;51.482;7.436;2022-10-18T00:41:13;16.60;99.90
49777;DHT22;35673;51.482;7.436;2022-10-18T00:43:58;16.60;99.90
49777;DHT22;35673;51.482;7.436;2022-10-18T00:46:26;16.60;99.90
49777;DHT22;35673;51.482;7.436;2022-10-18T00:48:52;16.60;99.90
49777;DHT22;35673;51.482;7.436;2022-10-18T00:51:20;16.60;99.90
49777;DHT22;35673;51.482;7.436;2022-10-18T00:53:48;16.60;99.90
49777;DHT22;35673;51.482;7.436;2022-10-18T00:56:14;16.60;99.90
49777;DHT22;35673;51.482;7.436;2022-10-18T00:58:41;16.60;99.90
49777;DHT22;35673;51.482;7.436;2022-10-18T01:01:06;16.60;99.90
49777;DHT22;35673;51.482;7.436;2022-10-18T01:03:32;16.60;99.90
49777;DHT22;35673;51.482;7.436;2022-10-18T01:05:59;16.60;99.90
49777;DHT22;35673;51.482;7.436;2022-10-18T01:11:08;16.60;99.90
49777;DHT22;35673;51.482;7.436;2022-10-18T01:21:54;16.60;99.90
49777;DHT22;35673;51.482;7.436;2022-10-18T01:24:45;16.60;99.90
49777;DHT22;35673;51.482;7.436;2022-10-18T01:36:06;16.50;99.90
49777;DHT22;35673;51.482;7.436;2022-10-18T01:38:33;16.50;99.90
49777;DHT22;35673;51.482;7.436;2022-10-18T01:41:02;16.50;99.90
49777;DHT22;35673;51.482;7.436;2022-10-18T01:43:30;16.50;99.90
49777;DHT22;35673;51.482;7.436;2022-10-18T01:45:58;16.50;99.90
49777;DHT22;35673;51.482;7.436;2022-10-18T01:48:25;16.50;99.90
49777;DHT22;35673;51.482;7.436;2022-10-18T01:50:51;16.50;99.90
49777;DHT22;35673;51.482;7.436;2022-10-18T01:53:25;16.50;99.90
49777;DHT22;35673;51.482;7.436;2022-10-18T01:56:06;16.50;99.90
49777;DHT22;35673;51.482;7.436;2022-10-18T02:01:33;16.50;99.90
49777;DHT22;35673;51.482;7.436;2022-10-18T02:04:58;16.40;99.90
49777;DHT22;35673;51.482;7.436;2022-10-18T02:07:05;16.50;99.90
49777;DHT22;35673;51.482;7.436;2022-10-18T02:09:39;16.40;99.90
49777;DHT22;35673;51.482;7.436;2022-10-18T02:12:09;16.40;99.90
49777;DHT22;35673;51.482;7.436;2022-10-18T02:14:36;16.40;99.90
49777;DHT22;35673;51.482;7.436;2022-10-18T02:17:04;16.40;99.90
49777;DHT22;35673;51.482;7.436;2022-10-18T02:19:34;16.40;99.90
49777;DHT22;35673;51.482;7.436;2022-10-18T02:22:01;16.40;99.90
49777;DHT22;35673;51.482;7.436;2022-10-18T02:24:34;16.30;99.90
49777;DHT22;35673;51.482;7.436;2022-10-18T02:27:02;16.40;99.90
49777;DHT22;35673;51.482;7.436;2022-10-18T02:29:28;16.30;99.90
49777;DHT22;35673;51.482;7.436;2022-10-18T02:34:33;16.30;99.90
49777;DHT22;35673;51.482;7.436;2022-10-18T02:37:01;16.30;99.90
49777;DHT22;35673;51.482;7.436;2022-10-18T02:39:35;16.30;99.90
49777;DHT22;35673;51.482;7.436;2022-10-18T02:42:05;16.30;99.90
49777;DHT22;35673;51.482;7.436;2022-10-18T02:44:32;16.30;99.90
49777;DHT22;35673;51.482;7.436;2022-10-18T02:46:58;16.30;99.90
49777;DHT22;35673;51.482;7.436;2022-10-18T02:49:23;16.30;99.90
49777;DHT22;35673;51.482;7.436;2022-10-18T02:51:49;16.30;99.90
49777;DHT22;35673;51.482;7.436;2022-10-18T02:54:14;16.30;99.90
49777;DHT22;35673;51.482;7.436;2022-10-18T02:56:40;16.30;99.90
49777;DHT22;35673;51.482;7.436;2022-10-18T02:59:05;16.40;99.90
49777;DHT22;35673;51.482;7.436;2022-10-18T03:01:35;16.30;99.90
49777;DHT22;35673;51.482;7.436;2022-10-18T03:04:01;16.30;99.90
49777;DHT22;35673;51.482;7.436;2022-10-18T03:06:27;16.30;99.90
49777;DHT22;35673;51.482;7.436;2022-10-18T03:08:52;16.30;99.90
49777;DHT22;35673;51.482;7.436;2022-10-18T03:11:18;16.30;99.90
49777;DHT22;35673;51.482;7.436;2022-10-18T03:13:43;16.30;99.90
49777;DHT22;35673;51.482;7.436;2022-10-18T03:16:09;16.30;99.90
49777;DHT22;35673;51.482;7.436;2022-10-18T03:18:35;16.30;99.90
49777;DHT22;35673;51.482;7.436;2022-10-18T03:21:05;16.30;99.90
49777;DHT22;35673;51.482;7.436;2022-10-18T03:23:30;16.30;99.90
49777;DHT22;35673;51.482;7.436;2022-10-18T03:25:56;16.20;99.90
49777;DHT22;35673;51.482;7.436;2022-10-18T03:28:21;16.20;99.90
49777;DHT22;35673;51.482;7.436;2022-10-18T03:30:47;16.20;99.90
49777;DHT22;35673;51.482;7.436;2022-10-18T03:33:12;16.20;99.90
49777;DHT22;35673;51.482;7.436;2022-10-18T03:35:38;16.20;99.90
49777;DHT22;35673;51.482;7.436;2022-10-18T03:38:04;16.20;99.90
49777;DHT22;35673;51.482;7.436;2022-10-18T03:40:29;16.20;99.90
49777;DHT22;35673;51.482;7.436;2022-10-18T03:42:55;16.20;99.90
49777;DHT22;35673;51.482;7.436;2022-10-18T03:45:21;16.20;99.90
49777;DHT22;35673;51.482;7.436;2022-10-18T03:47:46;16.20;99.90
49777;DHT22;35673;51.482;7.436;2022-10-18T03:50:12;16.20;99.90
49777;DHT22;35673;51.482;7.436;2022-10-18T03:52:37;16.20;99.90
49777;DHT22;35673;51.482;7.436;2022-10-18T03:55:03;16.20;99.90
49777;DHT22;35673;51.482;7.436;2022-10-18T03:57:29;16.20;99.90
49777;DHT22;35673;51.482;7.436;2022-10-18T03:59:55;16.20;99.90
49777;DHT22;35673;51.482;7.436;2022-10-18T04:02:20;16.20;99.90
49777;DHT22;35673;51.482;7.436;2022-10-18T04:04:46;16.20;99.90
49777;DHT22;35673;51.482;7.436;2022-10-18T04:07:11;16.10;99.90
49777;DHT22;35673;51.482;7.436;2022-10-18T04:09:37;16.10;99.90
49777;DHT22;35673;51.482;7.436;2022-10-18T04:12:03;16.20;99.90
49777;DHT22;35673;51.482;7.436;2022-10-18T04:14:28;16.20;99.90
49777;DHT22;35673;51.482;7.436;2022-10-18T04:16:54;16.20;99.90
49777;DHT22;35673;51.482;7.436;2022-10-18T04:19:19;16.20;99.90
49777;DHT22;35673;51.482;7.436;2022-10-18T04:21:45;16.20;99.90
49777;DHT22;35673;51.482;7.436;2022-10-18T04:24:10;16.20;99.90
49777;DHT22;35673;51.482;7.436;2022-10-18T04:26:36;16.20;99.90
49777;DHT22;35673;51.482;7.436;2022-10-18T04:29:01;16.20;99.90
49777;DHT22;35673;51.482;7.436;2022-10-18T04:31:27;16.20;99.90
49777;DHT22;35673;51.482;7.436;2022-10-18T04:33:53;16.20;99.90
49777;DHT22;35673;51.482;7.436;2022-10-18T04:36:18;16.20;99.90
49777;DHT22;35673;51.482;7.436;2022-10-18T04:38:44;16.20;99.90
49777;DHT22;35673;51.482;7.436;2022-10-18T04:41:09;16.20;99.90
49777;DHT22;35673;51.482;7.436;2022-10-18T04:43:35;16.20;99.90
49777;DHT22;35673;51.482;7.436;2022-10-18T04:46:00;16.20;99.90
49777;DHT22;35673;51.482;7.436;2022-10-18T04:48:26;16.20;99.90
49777;DHT22;35673;51.482;7.436;2022-10-18T04:50:52;16.20;99.90
49777;DHT22;35673;51.482;7.436;2022-10-18T04:53:18;16.20;99.90
49777;DHT22;35673;51.482;7.436;2022-10-18T04:55:47;16.20;99.90
49777;DHT22;35673;51.482;7.436;2022-10-18T04:58:14;16.20;99.90
49777;DHT22;35673;51.482;7.436;2022-10-18T05:00:39;16.20;99.90
49777;DHT22;35673;51.482;7.436;2022-10-18T05:03:06;16.20;99.90
49777;DHT22;35673;51.482;7.436;2022-10-18T05:05:31;16.20;99.90
49777;DHT22;35673;51.482;7.436;2022-10-18T05:07:57;16.20;99.90
49777;DHT22;35673;51.482;7.436;2022-10-18T05:10:22;16.20;99.90
49777;DHT22;35673;51.482;7.436;2022-10-18T05:12:48;16.20;99.90
49777;DHT22;35673;51.482;7.436;2022-10-18T05:15:13;16.20;99.90
49777;DHT22;35673;51.482;7.436;2022-10-18T05:17:39;16.20;99.90
49777;DHT22;35673;51.482;7.436;2022-10-18T05:20:05;16.20;99.90
49777;DHT22;35673;51.482;7.436;2022-10-18T05:22:31;16.30;99.90
49777;DHT22;35673;51.482;7.436;2022-10-18T05:24:56;16.30;99.90
49777;DHT22;35673;51.482;7.436;2022-10-18T05:27:22;16.20;99.90
49777;DHT22;35673;51.482;7.436;2022-10-18T05:29:47;16.20;99.90
49777;DHT22;35673;51.482;7.436;2022-10-18T05:32:13;16.20;99.90
49777;DHT22;35673;51.482;7.436;2022-10-18T05:34:38;16.30;99.90
49777;DHT22;35673;51.482;7.436;2022-10-18T05:37:04;16.20;99.90
49777;DHT22;35673;51.482;7.436;2022-10-18T05:39:31;16.30;99.90
49777;DHT22;35673;51.482;7.436;2022-10-18T05:41:56;16.20;99.90
49777;DHT22;35673;51.482;7.436;2022-10-18T05:44:22;16.30;99.90
49777;DHT22;35673;51.482;7.436;2022-10-18T05:46:48;16.20;99.90
49777;DHT22;35673;51.482;7.436;2022-10-18T05:49:13;16.30;99.90
49777;DHT22;35673;51.482;7.436;2022-10-18T05:51:39;16.20;99.90
49777;DHT22;35673;51.482;7.436;2022-10-18T05:54:05;16.30;99.90
49777;DHT22;35673;51.482;7.436;2022-10-18T05:56:30;16.30;99.90
49777;DHT22;35673;51.482;7.436;2022-10-18T05:58:56;16.30;99.90
49777;DHT22;35673;51.482;7.436;2022-10-18T06:01:22;16.30;99.90
49777;DHT22;35673;51.482;7.436;2022-10-18T06:03:47;16.30;99.90
49777;DHT22;35673;51.482;7.436;2022-10-18T06:06:14;16.30;99.90
49777;DHT22;35673;51.482;7.436;2022-10-18T06:08:40;16.20;99.90
49777;DHT22;35673;51.482;7.436;2022-10-18T06:11:07;16.30;99.90
49777;DHT22;35673;51.482;7.436;2022-10-18T06:13:33;16.20;99.90
49777;DHT22;35673;51.482;7.436;2022-10-18T06:15:59;16.30;99.90
49777;DHT22;35673;51.482;7.436;2022-10-18T06:18:24;16.30;99.90
49777;DHT22;35673;51.482;7.436;2022-10-18T06:20:59;16.30;99.90
49777;DHT22;35673;51.482;7.436;2022-10-18T06:23:28;16.30;99.90
49777;DHT22;35673;51.482;7.436;2022-10-18T06:26:03;16.30;99.90
49777;DHT22;35673;51.482;7.436;2022-10-18T06:28:29;16.30;99.90
49777;DHT22;35673;51.482;7.436;2022-10-18T06:30:55;16.30;99.90
49777;DHT22;35673;51.482;7.436;2022-10-18T06:33:22;16.30;99.90
49777;DHT22;35673;51.482;7.436;2022-10-18T06:36:14;16.30;99.90
49777;DHT22;35673;51.482;7.436;2022-10-18T06:38:39;16.40;99.90
49777;DHT22;35673;51.482;7.436;2022-10-18T06:41:05;16.30;99.90
49777;DHT22;35673;51.482;7.436;2022-10-18T06:43:31;16.30;99.90
49777;DHT22;35673;51.482;7.436;2022-10-18T06:45:56;16.40;99.90
49777;DHT22;35673;51.482;7.436;2022-10-18T06:48:23;16.30;99.90
49777;DHT22;35673;51.482;7.436;2022-10-18T06:51:00;16.40;99.90
49777;DHT22;35673;51.482;7.436;2022-10-18T06:53:28;16.30;99.90
49777;DHT22;35673;51.482;7.436;2022-10-18T06:56:05;16.30;99.90
49777;DHT22;35673;51.482;7.436;2022-10-18T06:58:32;16.40;99.90
49777;DHT22;35673;51.482;7.436;2022-10-18T07:00:58;16.40;99.90
49777;DHT22;35673;51.482;7.436;2022-10-18T07:03:24;16.30;99.90
49777;DHT22;35673;51.482;7.436;2022-10-18T07:05:50;16.40;99.90
49777;DHT22;35673;51.482;7.436;2022-10-18T07:08:16;16.40;99.90
49777;DHT22;35673;51.482;7.436;2022-10-18T07:10:42;16.40;99.90
49777;DHT22;35673;51.482;7.436;2022-10-18T07:13:14;16.40;99.90
49777;DHT22;35673;51.482;7.436;2022-10-18T07:15:39;16.40;99.90
49777;DHT22;35673;51.482;7.436;2022-10-18T07:18:05;16.40;99.90
49777;DHT22;35673;51.482;7.436;2022-10-18T07:20:31;16.40;99.90
49777;DHT22;35673;51.482;7.436;2022-10-18T07:22:56;16.40;99.90
49777;DHT22;35673;51.482;7.436;2022-10-18T07:25:22;16.40;99.90
49777;DHT22;35673;51.482;7.436;2022-10-18T07:27:47;16.50;99.90
49777;DHT22;35673;51.482;7.436;2022-10-18T07:30:13;16.50;99.90
49777;DHT22;35673;51.482;7.436;2022-10-18T07:32:38;16.50;99.90
49777;DHT22;35673;51.482;7.436;2022-10-18T07:35:04;16.50;99.90
49777;DHT22;35673;51.482;7.436;2022-10-18T07:37:30;16.50;99.90
49777;DHT22;35673;51.482;7.436;2022-10-18T07:39:56;16.50;99.90
49777;DHT22;35673;51.482;7.436;2022-10-18T07:42:21;16.50;99.90
49777;DHT22;35673;51.482;7.436;2022-10-18T07:44:47;16.50;99.90
49777;DHT22;35673;51.482;7.436;2022-10-18T07:47:12;16.50;99.90
49777;DHT22;35673;51.482;7.436;2022-10-18T07:49:39;16.50;99.90
49777;DHT22;35673;51.482;7.436;2022-10-18T07:52:05;16.50;99.90
49777;DHT22;35673;51.482;7.436;2022-10-18T07:54:30;16.50;99.90
49777;DHT22;35673;51.482;7.436;2022-10-18T07:56:56;16.60;99.90
49777;DHT22;35673;51.482;7.436;2022-10-18T07:59:21;16.60;99.90
49777;DHT22;35673;51.482;7.436;2022-10-18T08:01:47;16.60;99.90
49777;DHT22;35673;51.482;7.436;2022-10-18T08:04:12;16.70;99.90
49777;DHT22;35673;51.482;7.436;2022-10-18T08:06:38;16.70;99.90
49777;DHT22;35673;51.482;7.436;2022-10-18T08:09:04;16.70;99.90
49777;DHT22;35673;51.482;7.436;2022-10-18T08:11:29;16.70;99.90
49777;DHT22;35673;51.482;7.436;2022-10-18T08:13:55;16.70;99.90
49777;DHT22;35673;51.482;7.436;2022-10-18T08:16:23;16.70;99.90
49777;DHT22;35673;51.482;7.436;2022-10-18T08:18:49;16.70;99.90
49777;DHT22;35673;51.482;7.436;2022-10-18T08:21:16;16.70;99.90
49777;DHT22;35673;51.482;7.436;2022-10-18T08:23:42;16.80;99.90
49777;DHT22;35673;51.482;7.436;2022-10-18T08:26:14;16.80;99.90
49777;DHT22;35673;51.482;7.436;2022-10-18T08:28:40;16.80;99.90
49777;DHT22;35673;51.482;7.436;2022-10-18T08:31:11;16.80;99.90
49777;DHT22;35673;51.482;7.436;2022-10-18T08:33:38;16.90;99.90
49777;DHT22;35673;51.482;7.436;2022-10-18T08:36:07;16.90;99.90
49777;DHT22;35673;51.482;7.436;2022-10-18T08:38:34;16.90;99.90
49777;DHT22;35673;51.482;7.436;2022-10-18T08:44:24;17.00;99.90
49777;DHT22;35673;51.482;7.436;2022-10-18T08:46:54;17.00;99.90
49777;DHT22;35673;51.482;7.436;2022-10-18T08:52:32;17.00;99.90
49777;DHT22;35673;51.482;7.436;2022-10-18T08:55:07;17.00;99.90
49777;DHT22;35673;51.482;7.436;2022-10-18T08:57:34;16.90;99.90
49777;DHT22;35673;51.482;7.436;2022-10-18T09:00:03;16.90;99.90
49777;DHT22;35673;51.482;7.436;2022-10-18T09:05:52;16.90;99.90
49777;DHT22;35673;51.482;7.436;2022-10-18T09:11:28;16.80;99.90
49777;DHT22;35673;51.482;7.436;2022-10-18T09:14:12;16.80;99.90
49777;DHT22;35673;51.482;7.436;2022-10-18T09:16:54;16.80;99.90
49777;DHT22;35673;51.482;7.436;2022-10-18T09:19:43;16.80;99.90
49777;DHT22;35673;51.482;7.436;2022-10-18T09:22:17;16.80;99.90
49777;DHT22;35673;51.482;7.436;2022-10-18T09:24:53;16.80;99.90
49777;DHT22;35673;51.482;7.436;2022-10-18T09:27:34;16.90;99.90
49777;DHT22;35673;51.482;7.436;2022-10-18T09:30:08;17.00;99.90
49777;DHT22;35673;51.482;7.436;2022-10-18T09:32:55;17.00;99.90
49777;DHT22;35673;51.482;7.436;2022-10-18T09:35:41;17.00;99.90
49777;DHT22;35673;51.482;7.436;2022-10-18T09:38:10;16.90;99.90
49777;DHT22;35673;51.482;7.436;2022-10-18T09:40:47;16.90;99.90
49777;DHT22;35673;51.482;7.436;2022-10-18T09:43:25;16.90;99.90
49777;DHT22;35673;51.482;7.436;2022-10-18T09:45:54;16.90;99.90
49777;DHT22;35673;51.482;7.436;2022-10-18T09:48:28;16.90;99.90
49777;DHT22;35673;51.482;7.436;2022-10-18T09:51:13;17.00;99.90
49777;DHT22;35673;51.482;7.436;2022-10-18T09:56:40;17.00;99.90
49777;DHT22;35673;51.482;7.436;2022-10-18T10:01:56;17.00;99.90
49777;DHT22;35673;51.482;7.436;2022-10-18T10:04:21;17.00;99.90
49777;DHT22;35673;51.482;7.436;2022-10-18T10:06:52;17.00;99.90
49777;DHT22;35673;51.482;7.436;2022-10-18T10:09:38;17.00;99.90
49777;DHT22;35673;51.482;7.436;2022-10-18T10:12:30;17.10;99.90
49777;DHT22;35673;51.482;7.436;2022-10-18T10:15:05;17.10;99.90
49777;DHT22;35673;51.482;7.436;2022-10-18T10:17:32;17.10;99.90
49777;DHT22;35673;51.482;7.436;2022-10-18T10:20:01;17.20;99.90
49777;DHT22;35673;51.482;7.436;2022-10-18T10:22:38;17.20;99.90
49777;DHT22;35673;51.482;7.436;2022-10-18T10:25:05;17.30;99.90
49777;DHT22;35673;51.482;7.436;2022-10-18T10:27:35;17.30;99.90
49777;DHT22;35673;51.482;7.436;2022-10-18T10:32:49;17.30;99.90
49777;DHT22;35673;51.482;7.436;2022-10-18T10:35:34;17.30;99.90
49777;DHT22;35673;51.482;7.436;2022-10-18T10:38:01;17.30;99.90
49777;DHT22;35673;51.482;7.436;2022-10-18T10:40:32;17.30;99.90
49777;DHT22;35673;51.482;7.436;2022-10-18T10:46:04;17.40;99.90
49777;DHT22;35673;51.482;7.436;2022-10-18T10:48:31;17.50;99.90
49777;DHT22;35673;51.482;7.436;2022-10-18T10:51:05;17.70;99.90
49777;DHT22;35673;51.482;7.436;2022-10-18T10:53:41;17.90;99.90
49777;DHT22;35673;51.482;7.436;2022-10-18T10:56:23;18.10;99.90
49777;DHT22;35673;51.482;7.436;2022-10-18T10:58:50;18.30;99.90
49777;DHT22;35673;51.482;7.436;2022-10-18T11:01:28;18.60;99.90
49777;DHT22;35673;51.482;7.436;2022-10-18T11:03:56;18.70;99.90
49777;DHT22;35673;51.482;7.436;2022-10-18T11:08:57;18.50;99.90
49777;DHT22;35673;51.482;7.436;2022-10-18T11:11:34;18.50;99.90
49777;DHT22;35673;51.482;7.436;2022-10-18T11:14:20;18.60;99.90
49777;DHT22;35673;51.482;7.436;2022-10-18T11:21:59;18.70;99.90
49777;DHT22;35673;51.482;7.436;2022-10-18T11:24:27;18.70;99.90
49777;DHT22;35673;51.482;7.436;2022-10-18T11:27:24;18.90;99.90
49777;DHT22;35673;51.482;7.436;2022-10-18T11:33:03;19.40;99.90
49777;DHT22;35673;51.482;7.436;2022-10-18T11:35:55;19.70;99.90
49777;DHT22;35673;51.482;7.436;2022-10-18T11:41:37;19.80;99.90
49777;DHT22;35673;51.482;7.436;2022-10-18T11:44:41;19.70;99.90
49777;DHT22;35673;51.482;7.436;2022-10-18T11:50:04;20.10;99.90
49777;DHT22;35673;51.482;7.436;2022-10-18T11:58:37;20.10;99.90
49777;DHT22;35673;51.482;7.436;2022-10-18T12:04:16;19.80;99.90
49777;DHT22;35673;51.482;7.436;2022-10-18T12:06:45;20.30;99.90
49777;DHT22;35673;51.482;7.436;2022-10-18T12:11:46;20.90;98.30
49777;DHT22;35673;51.482;7.436;2022-10-18T12:14:38;21.70;94.20
49777;DHT22;35673;51.482;7.436;2022-10-18T12:17:27;22.00;88.70
49777;DHT22;35673;51.482;7.436;2022-10-18T12:20:03;22.50;87.30
49777;DHT22;35673;51.482;7.436;2022-10-18T12:22:37;23.40;84.10
49777;DHT22;35673;51.482;7.436;2022-10-18T12:25:05;23.50;81.30
49777;DHT22;35673;51.482;7.436;2022-10-18T12:30:34;26.30;72.90
49777;DHT22;35673;51.482;7.436;2022-10-18T12:33:11;26.50;70.10
49777;DHT22;35673;51.482;7.436;2022-10-18T12:38:34;25.70;70.50
49777;DHT22;35673;51.482;7.436;2022-10-18T12:41:01;25.90;71.30
49777;DHT22;35673;51.482;7.436;2022-10-18T12:43:32;25.70;71.30
49777;DHT22;35673;51.482;7.436;2022-10-18T12:46:06;25.00;71.20
49777;DHT22;35673;51.482;7.436;2022-10-18T12:48:37;24.20;73.90
49777;DHT22;35673;51.482;7.436;2022-10-18T12:53:29;23.10;77.00
49777;DHT22;35673;51.482;7.436;2022-10-18T13:09:29;24.10;73.00
49777;DHT22;35673;51.482;7.436;2022-10-18T13:17:33;23.30;73.60
49777;DHT22;35673;51.482;7.436;2022-10-18T13:28:51;23.90;71.10
49777;DHT22;35673;51.482;7.436;2022-10-18T13:31:46;24.60;69.60
49777;DHT22;35673;51.482;7.436;2022-10-18T13:37:02;25.50;64.50
49777;DHT22;35673;51.482;7.436;2022-10-18T13:39:30;24.40;64.70
49777;DHT22;35673;51.482;7.436;2022-10-18T13:49:51;21.60;70.60
49777;DHT22;35673;51.482;7.436;2022-10-18T14:06:46;20.30;74.30
49777;DHT22;35673;51.482;7.436;2022-10-18T14:09:18;20.30;74.90
49777;DHT22;35673;51.482;7.436;2022-10-18T14:14:41;23.60;69.70
49777;DHT22;35673;51.482;7.436;2022-10-18T14:19:56;26.60;62.60
49777;DHT22;35673;51.482;7.436;2022-10-18T14:25:28;29.60;55.40
49777;DHT22;35673;51.482;7.436;2022-10-18T14:28:19;30.80;53.70
49777;DHT22;35673;51.482;7.436;2022-10-18T14:30:56;32.40;50.40
49777;DHT22;35673;51.482;7.436;2022-10-18T14:33:40;33.30;49.30
49777;DHT22;35673;51.482;7.436;2022-10-18T14:38:46;34.70;46.70
49777;DHT22;35673;51.482;7.436;2022-10-18T14:41:15;35.30;46.20
49777;DHT22;35673;51.482;7.436;2022-10-18T14:43:42;35.40;46.00
49777;DHT22;35673;51.482;7.436;2022-10-18T14:46:30;35.70;46.30
49777;DHT22;35673;51.482;7.436;2022-10-18T14:49:00;36.20;44.80
49777;DHT22;35673;51.482;7.436;2022-10-18T14:51:29;36.40;44.00
49777;DHT22;35673;51.482;7.436;2022-10-18T14:53:57;36.40;43.70
49777;DHT22;35673;51.482;7.436;2022-10-18T14:58:52;36.10;43.30
49777;DHT22;35673;51.482;7.436;2022-10-18T15:01:20;36.40;42.90
49777;DHT22;35673;51.482;7.436;2022-10-18T15:03:47;36.50;42.40
49777;DHT22;35673;51.482;7.436;2022-10-18T15:06:18;36.10;42.70
49777;DHT22;35673;51.482;7.436;2022-10-18T15:08:45;35.90;42.00
49777;DHT22;35673;51.482;7.436;2022-10-18T15:11:13;35.30;42.60
49777;DHT22;35673;51.482;7.436;2022-10-18T15:13:55;34.50;42.90
49777;DHT22;35673;51.482;7.436;2022-10-18T15:16:24;33.70;43.50
49777;DHT22;35673;51.482;7.436;2022-10-18T15:19:05;31.90;45.40
49777;DHT22;35673;51.482;7.436;2022-10-18T15:21:33;30.80;46.00
49777;DHT22;35673;51.482;7.436;2022-10-18T15:24:19;29.70;51.10
49777;DHT22;35673;51.482;7.436;2022-10-18T15:26:47;29.40;47.70
49777;DHT22;35673;51.482;7.436;2022-10-18T15:29:17;29.50;47.90
49777;DHT22;35673;51.482;7.436;2022-10-18T15:31:48;28.20;48.50
49777;DHT22;35673;51.482;7.436;2022-10-18T15:34:26;26.90;50.20
49777;DHT22;35673;51.482;7.436;2022-10-18T15:36:53;25.70;51.60
49777;DHT22;35673;51.482;7.436;2022-10-18T15:39:25;24.80;53.30
49777;DHT22;35673;51.482;7.436;2022-10-18T15:41:56;23.90;54.80
49777;DHT22;35673;51.482;7.436;2022-10-18T15:46:54;22.70;56.90
49777;DHT22;35673;51.482;7.436;2022-10-18T15:52:12;22.00;58.70
49777;DHT22;35673;51.482;7.436;2022-10-18T15:54:40;21.60;59.20
49777;DHT22;35673;51.482;7.436;2022-10-18T15:57:10;21.40;59.90
49777;DHT22;35673;51.482;7.436;2022-10-18T15:59:52;21.20;60.30
49777;DHT22;35673;51.482;7.436;2022-10-18T16:02:18;20.90;60.70
49777;DHT22;35673;51.482;7.436;2022-10-18T16:04:45;20.80;61.20
49777;DHT22;35673;51.482;7.436;2022-10-18T16:07:12;20.60;61.60
49777;DHT22;35673;51.482;7.436;2022-10-18T16:09:38;20.50;62.30
49777;DHT22;35673;51.482;7.436;2022-10-18T16:12:04;20.30;62.60
49777;DHT22;35673;51.482;7.436;2022-10-18T16:14:30;20.20;63.00
49777;DHT22;35673;51.482;7.436;2022-10-18T16:16:59;20.10;63.30
49777;DHT22;35673;51.482;7.436;2022-10-18T16:19:25;20.00;63.50
49777;DHT22;35673;51.482;7.436;2022-10-18T16:21:52;19.80;64.10
49777;DHT22;35673;51.482;7.436;2022-10-18T16:24:18;19.60;65.30
49777;DHT22;35673;51.482;7.436;2022-10-18T16:26:44;19.50;65.30
49777;DHT22;35673;51.482;7.436;2022-10-18T16:29:12;19.40;65.60
49777;DHT22;35673;51.482;7.436;2022-10-18T16:31:39;19.20;66.20
49777;DHT22;35673;51.482;7.436;2022-10-18T16:34:04;19.10;67.00
49777;DHT22;35673;51.482;7.436;2022-10-18T16:39:00;18.90;67.40
49777;DHT22;35673;51.482;7.436;2022-10-18T16:41:26;18.70;68.50
49777;DHT22;35673;51.482;7.436;2022-10-18T16:43:52;18.60;69.00
49777;DHT22;35673;51.482;7.436;2022-10-18T16:48:46;18.40;70.20
49777;DHT22;35673;51.482;7.436;2022-10-18T16:51:11;18.30;70.60
49777;DHT22;35673;51.482;7.436;2022-10-18T16:53:37;18.20;70.90
49777;DHT22;35673;51.482;7.436;2022-10-18T16:56:04;18.10;71.60
49777;DHT22;35673;51.482;7.436;2022-10-18T16:58:31;18.00;72.10
49777;DHT22;35673;51.482;7.436;2022-10-18T17:00:58;17.90;72.60
49777;DHT22;35673;51.482;7.436;2022-10-18T17:03:24;17.80;73.30
49777;DHT22;35673;51.482;7.436;2022-10-18T17:05:50;17.70;73.90
49777;DHT22;35673;51.482;7.436;2022-10-18T17:08:21;17.60;74.40
49777;DHT22;35673;51.482;7.436;2022-10-18T17:10:49;17.50;75.00
49777;DHT22;35673;51.482;7.436;2022-10-18T17:13:17;17.40;75.50
49777;DHT22;35673;51.482;7.436;2022-10-18T17:15:43;17.30;76.00
49777;DHT22;35673;51.482;7.436;2022-10-18T17:18:11;17.20;77.00
49777;DHT22;35673;51.482;7.436;2022-10-18T17:20:37;17.10;77.80
49777;DHT22;35673;51.482;7.436;2022-10-18T17:26:17;17.00;79.60
49777;DHT22;35673;51.482;7.436;2022-10-18T17:28:44;16.80;80.40
49777;DHT22;35673;51.482;7.436;2022-10-18T17:31:10;16.70;81.40
49777;DHT22;35673;51.482;7.436;2022-10-18T17:33:36;16.70;82.50
49777;DHT22;35673;51.482;7.436;2022-10-18T17:36:02;16.70;83.30
49777;DHT22;35673;51.482;7.436;2022-10-18T17:38:27;16.60;83.80
49777;DHT22;35673;51.482;7.436;2022-10-18T17:40:53;16.50;84.50
49777;DHT22;35673;51.482;7.436;2022-10-18T17:43:19;16.40;85.70
49777;DHT22;35673;51.482;7.436;2022-10-18T17:45:49;16.30;87.00
49777;DHT22;35673;51.482;7.436;2022-10-18T17:48:15;16.30;88.70
49777;DHT22;35673;51.482;7.436;2022-10-18T17:50:41;16.20;89.80
49777;DHT22;35673;51.482;7.436;2022-10-18T17:53:08;16.00;90.60
49777;DHT22;35673;51.482;7.436;2022-10-18T17:55:35;15.90;91.70
49777;DHT22;35673;51.482;7.436;2022-10-18T17:58:00;15.90;92.50
49777;DHT22;35673;51.482;7.436;2022-10-18T18:00:26;15.80;92.90
49777;DHT22;35673;51.482;7.436;2022-10-18T18:02:56;15.70;93.30
49777;DHT22;35673;51.482;7.436;2022-10-18T18:05:21;15.70;93.70
49777;DHT22;35673;51.482;7.436;2022-10-18T18:07:47;15.60;94.30
49777;DHT22;35673;51.482;7.436;2022-10-18T18:10:12;15.50;94.60
49777;DHT22;35673;51.482;7.436;2022-10-18T18:12:38;15.40;95.40
49777;DHT22;35673;51.482;7.436;2022-10-18T18:15:04;15.40;95.80
49777;DHT22;35673;51.482;7.436;2022-10-18T18:17:29;15.30;96.20
49777;DHT22;35673;51.482;7.436;2022-10-18T18:19:55;15.30;96.60
49777;DHT22;35673;51.482;7.436;2022-10-18T18:22:21;15.20;97.10
49777;DHT22;35673;51.482;7.436;2022-10-18T18:24:46;15.10;97.50
49777;DHT22;35673;51.482;7.436;2022-10-18T18:27:12;15.10;98.10
49777;DHT22;35673;51.482;7.436;2022-10-18T18:29:37;15.00;98.90
49777;DHT22;35673;51.482;7.436;2022-10-18T18:32:03;14.80;99.50